sensor_id;sensor_type;location;lat;lon;timestamp;temperature;humidity
42479;DHT22;28110;47.080;9.476;2023-07-31T00:00:05;17.10;99.90
42479;DHT22;28110;47.080;9.476;2023-07-31T00:02:31;17.10;99.90
42479;DHT22;28110;47.080;9.476;2023-07-31T00:04:57;17.10;99.90
42479;DHT22;28110;47.080;9.476;2023-07-31T00:07:22;17.10;99.90
42479;DHT22;28110;47.080;9.476;2023-07-31T00:09:48;17.10;99.90
42479;DHT22;28110;47.080;9.476;2023-07-31T00:12:13;17.00;99.90
42479;DHT22;28110;47.080;9.476;2023-07-31T00:14:39;17.00;99.90
42479;DHT22;28110;47.080;9.476;2023-07-31T00:17:04;17.00;99.90
42479;DHT22;28110;47.080;9.476;2023-07-31T00:19:30;17.00;99.90
42479;DHT22;28110;47.080;9.476;2023-07-31T00:21:56;17.00;99.90
42479;DHT22;28110;47.080;9.476;2023-07-31T00:24:21;16.90;99.90
42479;DHT22;28110;47.080;9.476;2023-07-31T00:26:47;16.80;99.90
42479;DHT22;28110;47.080;9.476;2023-07-31T00:29:12;16.90;99.90
42479;DHT22;28110;47.080;9.476;2023-07-31T00:31:38;16.80;99.90
42479;DHT22;28110;47.080;9.476;2023-07-31T00:34:03;16.90;99.90
42479;DHT22;28110;47.080;9.476;2023-07-31T00:36:29;16.80;99.90
42479;DHT22;28110;47.080;9.476;2023-07-31T00:38:54;16.80;99.90
42479;DHT22;28110;47.080;9.476;2023-07-31T00:41:20;16.80;99.90
42479;DHT22;28110;47.080;9.476;2023-07-31T00:43:45;16.70;99.90
42479;DHT22;28110;47.080;9.476;2023-07-31T00:46:11;16.70;99.90
42479;DHT22;28110;47.080;9.476;2023-07-31T00:48:37;16.70;99.90
42479;DHT22;28110;47.080;9.476;2023-07-31T00:51:04;16.70;99.90
42479;DHT22;28110;47.080;9.476;2023-07-31T00:53:29;16.60;99.90
42479;DHT22;28110;47.080;9.476;2023-07-31T00:55:56;16.60;99.90
42479;DHT22;28110;47.080;9.476;2023-07-31T00:58:21;16.60;99.90
42479;DHT22;28110;47.080;9.476;2023-07-31T01:00:47;16.60;99.90
42479;DHT22;28110;47.080;9.476;2023-07-31T01:03:12;16.50;99.90
42479;DHT22;28110;47.080;9.476;2023-07-31T01:05:53;16.50;99.90
42479;DHT22;28110;47.080;9.476;2023-07-31T01:08:32;16.50;99.90
42479;DHT22;28110;47.080;9.476;2023-07-31T01:11:06;16.50;99.90
42479;DHT22;28110;47.080;9.476;2023-07-31T01:13:32;16.40;99.90
42479;DHT22;28110;47.080;9.476;2023-07-31T01:15:58;16.40;99.90
42479;DHT22;28110;47.080;9.476;2023-07-31T01:18:24;16.40;99.90
42479;DHT22;28110;47.080;9.476;2023-07-31T01:20:56;16.30;99.90
42479;DHT22;28110;47.080;9.476;2023-07-31T01:23:35;16.30;99.90
42479;DHT22;28110;47.080;9.476;2023-07-31T01:26:21;16.30;99.90
42479;DHT22;28110;47.080;9.476;2023-07-31T01:29:03;16.20;99.90
42479;DHT22;28110;47.080;9.476;2023-07-31T01:31:32;16.20;99.90
42479;DHT22;28110;47.080;9.476;2023-07-31T01:34:00;16.10;99.90
42479;DHT22;28110;47.080;9.476;2023-07-31T01:36:27;16.20;99.90
42479;DHT22;28110;47.080;9.476;2023-07-31T01:38:58;16.10;99.90
42479;DHT22;28110;47.080;9.476;2023-07-31T01:41:23;16.10;99.90
42479;DHT22;28110;47.080;9.476;2023-07-31T01:43:49;16.10;99.90
42479;DHT22;28110;47.080;9.476;2023-07-31T01:46:14;16.10;99.90
42479;DHT22;28110;47.080;9.476;2023-07-31T01:48:40;16.10;99.90
42479;DHT22;28110;47.080;9.476;2023-07-31T01:51:05;16.10;99.90
42479;DHT22;28110;47.080;9.476;2023-07-31T01:53:31;16.10;99.90
42479;DHT22;28110;47.080;9.476;2023-07-31T01:55:57;16.10;99.90
42479;DHT22;28110;47.080;9.476;2023-07-31T01:58:22;16.10;99.90
42479;DHT22;28110;47.080;9.476;2023-07-31T02:00:48;16.10;99.90
42479;DHT22;28110;47.080;9.476;2023-07-31T02:03:13;16.00;99.90
42479;DHT22;28110;47.080;9.476;2023-07-31T02:05:48;16.00;99.90
42479;DHT22;28110;47.080;9.476;2023-07-31T02:08:15;16.00;99.90
42479;DHT22;28110;47.080;9.476;2023-07-31T02:10:40;15.90;99.90
42479;DHT22;28110;47.080;9.476;2023-07-31T02:13:06;15.90;99.90
42479;DHT22;28110;47.080;9.476;2023-07-31T02:15:32;15.90;99.90
42479;DHT22;28110;47.080;9.476;2023-07-31T02:17:58;15.90;99.90
42479;DHT22;28110;47.080;9.476;2023-07-31T02:20:23;15.90;99.90
42479;DHT22;28110;47.080;9.476;2023-07-31T02:22:49;15.90;99.90
42479;DHT22;28110;47.080;9.476;2023-07-31T02:25:14;15.90;99.90
42479;DHT22;28110;47.080;9.476;2023-07-31T02:27:40;15.90;99.90
42479;DHT22;28110;47.080;9.476;2023-07-31T02:30:06;15.90;99.90
42479;DHT22;28110;47.080;9.476;2023-07-31T02:32:32;15.90;99.90
42479;DHT22;28110;47.080;9.476;2023-07-31T02:34:57;15.90;99.90
42479;DHT22;28110;47.080;9.476;2023-07-31T02:37:23;15.90;99.90
42479;DHT22;28110;47.080;9.476;2023-07-31T02:39:48;15.80;99.90
42479;DHT22;28110;47.080;9.476;2023-07-31T02:42:14;15.90;99.90
42479;DHT22;28110;47.080;9.476;2023-07-31T02:44:40;15.90;99.90
42479;DHT22;28110;47.080;9.476;2023-07-31T02:47:05;15.90;99.90
42479;DHT22;28110;47.080;9.476;2023-07-31T02:49:31;15.80;99.90
42479;DHT22;28110;47.080;9.476;2023-07-31T02:51:56;15.80;99.90
42479;DHT22;28110;47.080;9.476;2023-07-31T02:54:22;15.80;99.90
42479;DHT22;28110;47.080;9.476;2023-07-31T02:56:48;15.80;99.90
42479;DHT22;28110;47.080;9.476;2023-07-31T02:59:13;15.80;99.90
42479;DHT22;28110;47.080;9.476;2023-07-31T03:01:39;15.80;99.90
42479;DHT22;28110;47.080;9.476;2023-07-31T03:04:04;15.70;99.90
42479;DHT22;28110;47.080;9.476;2023-07-31T03:06:30;15.70;99.90
42479;DHT22;28110;47.080;9.476;2023-07-31T03:08:55;15.70;99.90
42479;DHT22;28110;47.080;9.476;2023-07-31T03:11:21;15.70;99.90
42479;DHT22;28110;47.080;9.476;2023-07-31T03:13:47;15.70;99.90
42479;DHT22;28110;47.080;9.476;2023-07-31T03:16:12;15.60;99.90
42479;DHT22;28110;47.080;9.476;2023-07-31T03:18:38;15.60;99.90
42479;DHT22;28110;47.080;9.476;2023-07-31T03:21:04;15.60;99.90
42479;DHT22;28110;47.080;9.476;2023-07-31T03:23:30;15.60;99.90
42479;DHT22;28110;47.080;9.476;2023-07-31T03:25:57;15.60;99.90
42479;DHT22;28110;47.080;9.476;2023-07-31T03:28:22;15.50;99.90
42479;DHT22;28110;47.080;9.476;2023-07-31T03:30:48;15.50;99.90
42479;DHT22;28110;47.080;9.476;2023-07-31T03:33:14;15.50;99.90
42479;DHT22;28110;47.080;9.476;2023-07-31T03:35:39;15.50;99.90
42479;DHT22;28110;47.080;9.476;2023-07-31T03:38:05;15.40;99.90
42479;DHT22;28110;47.080;9.476;2023-07-31T03:40:30;15.40;99.90
42479;DHT22;28110;47.080;9.476;2023-07-31T03:42:56;15.40;99.90
42479;DHT22;28110;47.080;9.476;2023-07-31T03:45:21;15.40;99.90
42479;DHT22;28110;47.080;9.476;2023-07-31T03:47:47;15.40;99.90
42479;DHT22;28110;47.080;9.476;2023-07-31T03:50:12;15.30;99.90
42479;DHT22;28110;47.080;9.476;2023-07-31T03:52:38;15.30;99.90
42479;DHT22;28110;47.080;9.476;2023-07-31T03:55:04;15.20;99.90
42479;DHT22;28110;47.080;9.476;2023-07-31T03:57:29;15.20;99.90
42479;DHT22;28110;47.080;9.476;2023-07-31T03:59:57;15.20;99.90
42479;DHT22;28110;47.080;9.476;2023-07-31T04:02:23;15.30;99.90
42479;DHT22;28110;47.080;9.476;2023-07-31T04:04:49;15.30;99.90
42479;DHT22;28110;47.080;9.476;2023-07-31T04:07:14;15.30;99.90
42479;DHT22;28110;47.080;9.476;2023-07-31T04:09:40;15.30;99.90
42479;DHT22;28110;47.080;9.476;2023-07-31T04:12:05;15.30;99.90
42479;DHT22;28110;47.080;9.476;2023-07-31T04:14:31;15.30;99.90
42479;DHT22;28110;47.080;9.476;2023-07-31T04:16:56;15.30;99.90
42479;DHT22;28110;47.080;9.476;2023-07-31T04:19:22;15.30;99.90
42479;DHT22;28110;47.080;9.476;2023-07-31T04:21:48;15.30;99.90
42479;DHT22;28110;47.080;9.476;2023-07-31T04:24:13;15.40;99.90
42479;DHT22;28110;47.080;9.476;2023-07-31T04:26:39;15.40;99.90
42479;DHT22;28110;47.080;9.476;2023-07-31T04:29:04;15.30;99.90
42479;DHT22;28110;47.080;9.476;2023-07-31T04:31:30;15.30;99.90
42479;DHT22;28110;47.080;9.476;2023-07-31T04:33:55;15.30;99.90
42479;DHT22;28110;47.080;9.476;2023-07-31T04:36:21;15.30;99.90
42479;DHT22;28110;47.080;9.476;2023-07-31T04:38:46;15.30;99.90
42479;DHT22;28110;47.080;9.476;2023-07-31T04:41:12;15.40;99.90
42479;DHT22;28110;47.080;9.476;2023-07-31T04:43:37;15.40;99.90
42479;DHT22;28110;47.080;9.476;2023-07-31T04:46:05;15.40;99.90
42479;DHT22;28110;47.080;9.476;2023-07-31T04:48:31;15.40;99.90
42479;DHT22;28110;47.080;9.476;2023-07-31T04:50:56;15.40;99.90
42479;DHT22;28110;47.080;9.476;2023-07-31T04:53:22;15.40;99.90
42479;DHT22;28110;47.080;9.476;2023-07-31T04:55:47;15.40;99.90
42479;DHT22;28110;47.080;9.476;2023-07-31T04:58:13;15.40;99.90
42479;DHT22;28110;47.080;9.476;2023-07-31T05:00:38;15.50;99.90
42479;DHT22;28110;47.080;9.476;2023-07-31T05:03:04;15.50;99.90
42479;DHT22;28110;47.080;9.476;2023-07-31T05:05:30;15.50;99.90
42479;DHT22;28110;47.080;9.476;2023-07-31T05:07:55;15.50;99.90
42479;DHT22;28110;47.080;9.476;2023-07-31T05:10:21;15.60;99.90
42479;DHT22;28110;47.080;9.476;2023-07-31T05:12:46;15.60;99.90
42479;DHT22;28110;47.080;9.476;2023-07-31T05:15:12;15.70;99.90
42479;DHT22;28110;47.080;9.476;2023-07-31T05:17:37;15.60;99.90
42479;DHT22;28110;47.080;9.476;2023-07-31T05:20:03;15.70;99.90
42479;DHT22;28110;47.080;9.476;2023-07-31T05:22:29;15.70;99.90
42479;DHT22;28110;47.080;9.476;2023-07-31T05:24:54;15.70;99.90
42479;DHT22;28110;47.080;9.476;2023-07-31T05:27:20;15.80;99.90
42479;DHT22;28110;47.080;9.476;2023-07-31T05:29:45;15.80;99.90
42479;DHT22;28110;47.080;9.476;2023-07-31T05:32:12;15.80;99.90
42479;DHT22;28110;47.080;9.476;2023-07-31T05:34:37;15.90;99.90
42479;DHT22;28110;47.080;9.476;2023-07-31T05:37:03;16.00;99.90
42479;DHT22;28110;47.080;9.476;2023-07-31T05:39:28;16.10;99.90
42479;DHT22;28110;47.080;9.476;2023-07-31T05:41:54;16.20;99.90
42479;DHT22;28110;47.080;9.476;2023-07-31T05:44:19;16.20;99.90
42479;DHT22;28110;47.080;9.476;2023-07-31T05:46:45;16.30;99.90
42479;DHT22;28110;47.080;9.476;2023-07-31T05:49:10;16.40;99.90
42479;DHT22;28110;47.080;9.476;2023-07-31T05:51:36;16.40;99.90
42479;DHT22;28110;47.080;9.476;2023-07-31T05:54:01;16.50;99.90
42479;DHT22;28110;47.080;9.476;2023-07-31T05:56:27;16.60;99.90
42479;DHT22;28110;47.080;9.476;2023-07-31T05:58:52;16.70;99.90
42479;DHT22;28110;47.080;9.476;2023-07-31T06:01:18;16.70;99.90
42479;DHT22;28110;47.080;9.476;2023-07-31T06:03:44;16.80;99.90
42479;DHT22;28110;47.080;9.476;2023-07-31T06:06:10;16.80;99.90
42479;DHT22;28110;47.080;9.476;2023-07-31T06:08:36;16.80;99.90
42479;DHT22;28110;47.080;9.476;2023-07-31T06:11:01;16.80;99.90
42479;DHT22;28110;47.080;9.476;2023-07-31T06:13:27;16.80;99.90
42479;DHT22;28110;47.080;9.476;2023-07-31T06:15:52;16.80;99.90
42479;DHT22;28110;47.080;9.476;2023-07-31T06:18:18;16.70;99.90
42479;DHT22;28110;47.080;9.476;2023-07-31T06:20:44;16.70;99.90
42479;DHT22;28110;47.080;9.476;2023-07-31T06:23:09;16.60;99.90
42479;DHT22;28110;47.080;9.476;2023-07-31T06:25:35;16.60;99.90
42479;DHT22;28110;47.080;9.476;2023-07-31T06:28:00;16.50;99.90
42479;DHT22;28110;47.080;9.476;2023-07-31T06:30:26;16.60;99.90
42479;DHT22;28110;47.080;9.476;2023-07-31T06:32:51;16.70;99.90
42479;DHT22;28110;47.080;9.476;2023-07-31T06:35:17;16.70;99.90
42479;DHT22;28110;47.080;9.476;2023-07-31T06:37:43;16.80;99.90
42479;DHT22;28110;47.080;9.476;2023-07-31T06:40:09;16.90;99.90
42479;DHT22;28110;47.080;9.476;2023-07-31T06:42:35;17.00;99.90
42479;DHT22;28110;47.080;9.476;2023-07-31T06:45:02;17.10;99.90
42479;DHT22;28110;47.080;9.476;2023-07-31T06:47:27;17.20;99.90
42479;DHT22;28110;47.080;9.476;2023-07-31T06:49:53;17.30;99.90
42479;DHT22;28110;47.080;9.476;2023-07-31T06:52:18;17.40;99.90
42479;DHT22;28110;47.080;9.476;2023-07-31T06:54:44;17.50;99.90
42479;DHT22;28110;47.080;9.476;2023-07-31T06:57:10;17.60;99.90
42479;DHT22;28110;47.080;9.476;2023-07-31T06:59:35;17.70;99.90
42479;DHT22;28110;47.080;9.476;2023-07-31T07:02:01;17.70;99.90
42479;DHT22;28110;47.080;9.476;2023-07-31T07:04:26;17.80;99.90
42479;DHT22;28110;47.080;9.476;2023-07-31T07:06:52;17.80;99.90
42479;DHT22;28110;47.080;9.476;2023-07-31T07:09:17;17.90;99.90
42479;DHT22;28110;47.080;9.476;2023-07-31T07:11:43;18.00;99.90
42479;DHT22;28110;47.080;9.476;2023-07-31T07:14:09;18.10;99.90
42479;DHT22;28110;47.080;9.476;2023-07-31T07:16:35;18.40;99.90
42479;DHT22;28110;47.080;9.476;2023-07-31T07:19:01;18.60;99.90
42479;DHT22;28110;47.080;9.476;2023-07-31T07:21:26;18.80;99.90
42479;DHT22;28110;47.080;9.476;2023-07-31T07:23:52;18.80;99.90
42479;DHT22;28110;47.080;9.476;2023-07-31T07:26:17;18.90;99.90
42479;DHT22;28110;47.080;9.476;2023-07-31T07:28:43;18.80;99.90
42479;DHT22;28110;47.080;9.476;2023-07-31T07:31:08;18.80;99.90
42479;DHT22;28110;47.080;9.476;2023-07-31T07:33:34;18.80;99.90
42479;DHT22;28110;47.080;9.476;2023-07-31T07:36:02;19.00;99.90
42479;DHT22;28110;47.080;9.476;2023-07-31T07:38:28;19.20;99.90
42479;DHT22;28110;47.080;9.476;2023-07-31T07:40:53;19.30;99.90
42479;DHT22;28110;47.080;9.476;2023-07-31T07:43:19;19.50;99.90
42479;DHT22;28110;47.080;9.476;2023-07-31T07:45:45;19.80;99.90
42479;DHT22;28110;47.080;9.476;2023-07-31T07:48:10;19.80;99.90
42479;DHT22;28110;47.080;9.476;2023-07-31T07:50:38;19.90;99.90
42479;DHT22;28110;47.080;9.476;2023-07-31T07:53:03;20.00;99.90
42479;DHT22;28110;47.080;9.476;2023-07-31T07:55:29;20.10;99.90
42479;DHT22;28110;47.080;9.476;2023-07-31T07:57:54;20.20;99.90
42479;DHT22;28110;47.080;9.476;2023-07-31T08:00:20;20.30;99.90
42479;DHT22;28110;47.080;9.476;2023-07-31T08:02:46;20.30;99.90
42479;DHT22;28110;47.080;9.476;2023-07-31T08:05:11;20.40;99.90
42479;DHT22;28110;47.080;9.476;2023-07-31T08:07:37;20.30;99.90
42479;DHT22;28110;47.080;9.476;2023-07-31T08:10:03;20.30;99.90
42479;DHT22;28110;47.080;9.476;2023-07-31T08:12:28;20.20;99.90
42479;DHT22;28110;47.080;9.476;2023-07-31T08:14:54;20.20;99.90
42479;DHT22;28110;47.080;9.476;2023-07-31T08:17:19;20.30;99.90
42479;DHT22;28110;47.080;9.476;2023-07-31T08:19:45;20.20;99.90
42479;DHT22;28110;47.080;9.476;2023-07-31T08:22:11;20.30;99.90
42479;DHT22;28110;47.080;9.476;2023-07-31T08:24:37;20.30;99.90
42479;DHT22;28110;47.080;9.476;2023-07-31T08:27:02;20.30;99.90
42479;DHT22;28110;47.080;9.476;2023-07-31T08:29:28;20.20;99.90
42479;DHT22;28110;47.080;9.476;2023-07-31T08:31:53;20.20;99.90
42479;DHT22;28110;47.080;9.476;2023-07-31T08:34:19;20.40;99.90
42479;DHT22;28110;47.080;9.476;2023-07-31T08:36:44;20.70;99.90
42479;DHT22;28110;47.080;9.476;2023-07-31T08:39:10;21.00;99.90
42479;DHT22;28110;47.080;9.476;2023-07-31T08:41:39;21.20;99.90
42479;DHT22;28110;47.080;9.476;2023-07-31T08:44:05;21.60;99.90
42479;DHT22;28110;47.080;9.476;2023-07-31T08:46:31;21.90;99.90
42479;DHT22;28110;47.080;9.476;2023-07-31T08:48:58;22.10;99.90
42479;DHT22;28110;47.080;9.476;2023-07-31T08:51:25;22.20;99.90
42479;DHT22;28110;47.080;9.476;2023-07-31T08:53:50;22.50;99.90
42479;DHT22;28110;47.080;9.476;2023-07-31T08:56:16;22.40;99.90
42479;DHT22;28110;47.080;9.476;2023-07-31T08:58:43;22.30;99.90
42479;DHT22;28110;47.080;9.476;2023-07-31T09:01:09;22.20;99.90
42479;DHT22;28110;47.080;9.476;2023-07-31T09:03:36;22.10;99.90
42479;DHT22;28110;47.080;9.476;2023-07-31T09:06:03;21.80;99.90
42479;DHT22;28110;47.080;9.476;2023-07-31T09:08:31;21.90;99.90
42479;DHT22;28110;47.080;9.476;2023-07-31T09:11:01;22.10;99.90
42479;DHT22;28110;47.080;9.476;2023-07-31T09:13:30;22.20;99.90
42479;DHT22;28110;47.080;9.476;2023-07-31T09:15:56;22.30;99.90
42479;DHT22;28110;47.080;9.476;2023-07-31T09:18:21;22.50;99.90
42479;DHT22;28110;47.080;9.476;2023-07-31T09:21:08;22.70;99.90
42479;DHT22;28110;47.080;9.476;2023-07-31T09:23:43;22.70;99.90
42479;DHT22;28110;47.080;9.476;2023-07-31T09:26:09;22.90;99.90
42479;DHT22;28110;47.080;9.476;2023-07-31T09:28:35;23.00;99.90
42479;DHT22;28110;47.080;9.476;2023-07-31T09:31:00;23.10;99.90
42479;DHT22;28110;47.080;9.476;2023-07-31T09:33:26;22.90;99.90
42479;DHT22;28110;47.080;9.476;2023-07-31T09:35:51;23.00;99.90
42479;DHT22;28110;47.080;9.476;2023-07-31T09:38:17;22.90;99.90
42479;DHT22;28110;47.080;9.476;2023-07-31T09:40:45;22.90;99.90
42479;DHT22;28110;47.080;9.476;2023-07-31T09:43:12;22.80;99.90
42479;DHT22;28110;47.080;9.476;2023-07-31T09:45:40;22.80;99.90
42479;DHT22;28110;47.080;9.476;2023-07-31T09:48:09;22.70;99.90
42479;DHT22;28110;47.080;9.476;2023-07-31T09:50:37;22.70;99.90
42479;DHT22;28110;47.080;9.476;2023-07-31T09:53:03;22.60;99.90
42479;DHT22;28110;47.080;9.476;2023-07-31T09:55:29;22.40;99.90
42479;DHT22;28110;47.080;9.476;2023-07-31T09:57:57;22.30;99.90
42479;DHT22;28110;47.080;9.476;2023-07-31T10:00:24;22.20;99.90
42479;DHT22;28110;47.080;9.476;2023-07-31T10:02:53;22.20;99.90
42479;DHT22;28110;47.080;9.476;2023-07-31T10:05:19;22.30;99.90
42479;DHT22;28110;47.080;9.476;2023-07-31T10:07:53;22.30;99.90
42479;DHT22;28110;47.080;9.476;2023-07-31T10:10:21;22.40;99.90
42479;DHT22;28110;47.080;9.476;2023-07-31T10:12:48;22.40;99.90
42479;DHT22;28110;47.080;9.476;2023-07-31T10:15:15;22.50;99.90
42479;DHT22;28110;47.080;9.476;2023-07-31T10:17:41;22.60;99.90
42479;DHT22;28110;47.080;9.476;2023-07-31T10:20:08;22.70;99.90
42479;DHT22;28110;47.080;9.476;2023-07-31T10:22:34;23.00;99.90
42479;DHT22;28110;47.080;9.476;2023-07-31T10:25:01;23.20;99.90
42479;DHT22;28110;47.080;9.476;2023-07-31T10:27:27;23.40;99.90
42479;DHT22;28110;47.080;9.476;2023-07-31T10:29:56;23.40;99.90
42479;DHT22;28110;47.080;9.476;2023-07-31T10:32:22;23.40;99.90
42479;DHT22;28110;47.080;9.476;2023-07-31T10:34:50;23.50;99.90
42479;DHT22;28110;47.080;9.476;2023-07-31T10:37:30;23.60;99.90
42479;DHT22;28110;47.080;9.476;2023-07-31T10:40:03;23.50;99.90
42479;DHT22;28110;47.080;9.476;2023-07-31T10:42:34;23.40;99.90
42479;DHT22;28110;47.080;9.476;2023-07-31T10:45:02;23.20;99.90
42479;DHT22;28110;47.080;9.476;2023-07-31T10:47:28;23.20;99.90
42479;DHT22;28110;47.080;9.476;2023-07-31T10:50:17;23.30;99.90
42479;DHT22;28110;47.080;9.476;2023-07-31T10:52:49;23.40;99.90
42479;DHT22;28110;47.080;9.476;2023-07-31T10:55:24;23.50;99.90
42479;DHT22;28110;47.080;9.476;2023-07-31T10:57:50;23.40;99.90
42479;DHT22;28110;47.080;9.476;2023-07-31T11:00:20;23.40;99.90
42479;DHT22;28110;47.080;9.476;2023-07-31T11:03:03;23.40;99.90
42479;DHT22;28110;47.080;9.476;2023-07-31T11:08:13;23.60;99.90
42479;DHT22;28110;47.080;9.476;2023-07-31T11:10:39;23.60;99.90
42479;DHT22;28110;47.080;9.476;2023-07-31T11:13:05;23.50;99.90
42479;DHT22;28110;47.080;9.476;2023-07-31T11:15:31;23.30;99.90
42479;DHT22;28110;47.080;9.476;2023-07-31T11:17:56;23.30;99.90
42479;DHT22;28110;47.080;9.476;2023-07-31T11:20:24;23.20;99.90
42479;DHT22;28110;47.080;9.476;2023-07-31T11:22:49;23.20;99.90
42479;DHT22;28110;47.080;9.476;2023-07-31T11:25:16;23.20;99.90
42479;DHT22;28110;47.080;9.476;2023-07-31T11:27:41;23.00;99.90
42479;DHT22;28110;47.080;9.476;2023-07-31T11:30:09;22.80;99.90
42479;DHT22;28110;47.080;9.476;2023-07-31T11:32:38;22.80;99.90
42479;DHT22;28110;47.080;9.476;2023-07-31T11:35:04;22.70;99.90
42479;DHT22;28110;47.080;9.476;2023-07-31T11:37:44;22.70;99.90
42479;DHT22;28110;47.080;9.476;2023-07-31T11:40:11;22.70;99.90
42479;DHT22;28110;47.080;9.476;2023-07-31T11:42:36;22.80;99.90
42479;DHT22;28110;47.080;9.476;2023-07-31T11:45:06;22.90;99.90
42479;DHT22;28110;47.080;9.476;2023-07-31T11:47:36;23.10;99.90
42479;DHT22;28110;47.080;9.476;2023-07-31T11:50:03;23.30;99.90
42479;DHT22;28110;47.080;9.476;2023-07-31T11:52:34;23.60;99.90
42479;DHT22;28110;47.080;9.476;2023-07-31T11:55:02;23.80;99.90
42479;DHT22;28110;47.080;9.476;2023-07-31T11:57:28;23.80;99.90
42479;DHT22;28110;47.080;9.476;2023-07-31T11:59:55;23.80;99.90
42479;DHT22;28110;47.080;9.476;2023-07-31T12:02:21;23.80;99.90
42479;DHT22;28110;47.080;9.476;2023-07-31T12:04:47;23.80;99.90
42479;DHT22;28110;47.080;9.476;2023-07-31T12:07:13;23.90;99.90
42479;DHT22;28110;47.080;9.476;2023-07-31T12:09:50;23.90;99.90
42479;DHT22;28110;47.080;9.476;2023-07-31T12:12:20;24.00;99.90
42479;DHT22;28110;47.080;9.476;2023-07-31T12:14:46;24.00;99.90
42479;DHT22;28110;47.080;9.476;2023-07-31T12:17:11;23.80;99.90
42479;DHT22;28110;47.080;9.476;2023-07-31T12:19:37;23.90;99.90
42479;DHT22;28110;47.080;9.476;2023-07-31T12:22:14;23.90;99.90
42479;DHT22;28110;47.080;9.476;2023-07-31T12:24:41;24.00;99.90
42479;DHT22;28110;47.080;9.476;2023-07-31T12:27:11;24.00;99.90
42479;DHT22;28110;47.080;9.476;2023-07-31T12:29:36;24.20;99.90
42479;DHT22;28110;47.080;9.476;2023-07-31T12:32:02;24.30;99.90
42479;DHT22;28110;47.080;9.476;2023-07-31T12:34:28;24.30;99.90
42479;DHT22;28110;47.080;9.476;2023-07-31T12:36:54;24.30;99.90
42479;DHT22;28110;47.080;9.476;2023-07-31T12:39:19;24.20;99.90
42479;DHT22;28110;47.080;9.476;2023-07-31T12:41:45;24.20;99.90
42479;DHT22;28110;47.080;9.476;2023-07-31T12:44:11;24.20;99.90
42479;DHT22;28110;47.080;9.476;2023-07-31T12:46:36;24.20;99.90
42479;DHT22;28110;47.080;9.476;2023-07-31T12:49:02;24.20;99.90
42479;DHT22;28110;47.080;9.476;2023-07-31T12:51:28;24.20;99.90
42479;DHT22;28110;47.080;9.476;2023-07-31T12:53:53;24.10;99.90
42479;DHT22;28110;47.080;9.476;2023-07-31T12:56:19;24.00;99.90
42479;DHT22;28110;47.080;9.476;2023-07-31T12:58:44;24.00;99.90
42479;DHT22;28110;47.080;9.476;2023-07-31T13:01:10;23.90;99.90
42479;DHT22;28110;47.080;9.476;2023-07-31T13:03:35;23.80;99.90
42479;DHT22;28110;47.080;9.476;2023-07-31T13:06:01;23.80;99.90
42479;DHT22;28110;47.080;9.476;2023-07-31T13:08:26;23.70;99.90
42479;DHT22;28110;47.080;9.476;2023-07-31T13:10:52;23.80;99.90
42479;DHT22;28110;47.080;9.476;2023-07-31T13:13:17;23.70;99.90
42479;DHT22;28110;47.080;9.476;2023-07-31T13:15:43;23.70;99.90
42479;DHT22;28110;47.080;9.476;2023-07-31T13:18:09;23.90;99.90
42479;DHT22;28110;47.080;9.476;2023-07-31T13:20:34;23.90;99.90
42479;DHT22;28110;47.080;9.476;2023-07-31T13:23:00;23.90;99.90
42479;DHT22;28110;47.080;9.476;2023-07-31T13:25:25;23.90;99.90
42479;DHT22;28110;47.080;9.476;2023-07-31T13:27:51;24.00;99.90
42479;DHT22;28110;47.080;9.476;2023-07-31T13:30:16;24.00;99.90
42479;DHT22;28110;47.080;9.476;2023-07-31T13:32:42;24.10;99.90
42479;DHT22;28110;47.080;9.476;2023-07-31T13:35:08;24.10;99.90
42479;DHT22;28110;47.080;9.476;2023-07-31T13:37:34;24.10;99.90
42479;DHT22;28110;47.080;9.476;2023-07-31T13:40:00;24.10;99.90
42479;DHT22;28110;47.080;9.476;2023-07-31T13:42:26;24.10;99.90
42479;DHT22;28110;47.080;9.476;2023-07-31T13:44:53;24.10;99.90
42479;DHT22;28110;47.080;9.476;2023-07-31T13:47:22;24.10;99.90
42479;DHT22;28110;47.080;9.476;2023-07-31T13:49:47;24.00;99.90
42479;DHT22;28110;47.080;9.476;2023-07-31T13:52:13;24.10;99.90
42479;DHT22;28110;47.080;9.476;2023-07-31T13:54:38;24.10;99.90
42479;DHT22;28110;47.080;9.476;2023-07-31T13:57:04;24.20;99.90
42479;DHT22;28110;47.080;9.476;2023-07-31T13:59:30;24.20;99.90
42479;DHT22;28110;47.080;9.476;2023-07-31T14:01:55;24.10;99.90
42479;DHT22;28110;47.080;9.476;2023-07-31T14:04:21;24.10;99.90
42479;DHT22;28110;47.080;9.476;2023-07-31T14:06:46;24.10;99.90
42479;DHT22;28110;47.080;9.476;2023-07-31T14:09:13;24.20;99.90
42479;DHT22;28110;47.080;9.476;2023-07-31T14:11:39;24.20;99.90
42479;DHT22;28110;47.080;9.476;2023-07-31T14:14:05;24.20;99.90
42479;DHT22;28110;47.080;9.476;2023-07-31T14:16:30;24.20;99.90
42479;DHT22;28110;47.080;9.476;2023-07-31T14:18:56;24.20;99.90
42479;DHT22;28110;47.080;9.476;2023-07-31T14:21:24;24.10;99.90
42479;DHT22;28110;47.080;9.476;2023-07-31T14:23:50;24.10;99.90
42479;DHT22;28110;47.080;9.476;2023-07-31T14:26:15;24.10;99.90
42479;DHT22;28110;47.080;9.476;2023-07-31T14:28:42;24.10;99.90
42479;DHT22;28110;47.080;9.476;2023-07-31T14:31:08;24.10;99.90
42479;DHT22;28110;47.080;9.476;2023-07-31T14:33:33;24.20;99.90
42479;DHT22;28110;47.080;9.476;2023-07-31T14:35:59;24.30;99.90
42479;DHT22;28110;47.080;9.476;2023-07-31T14:38:24;24.30;99.90
42479;DHT22;28110;47.080;9.476;2023-07-31T14:40:51;24.20;99.90
42479;DHT22;28110;47.080;9.476;2023-07-31T14:43:17;24.20;99.90
42479;DHT22;28110;47.080;9.476;2023-07-31T14:45:42;24.20;99.90
42479;DHT22;28110;47.080;9.476;2023-07-31T14:48:09;24.20;99.90
42479;DHT22;28110;47.080;9.476;2023-07-31T14:50:35;24.20;99.90
42479;DHT22;28110;47.080;9.476;2023-07-31T14:53:00;24.20;99.90
42479;DHT22;28110;47.080;9.476;2023-07-31T14:55:26;24.20;99.90
42479;DHT22;28110;47.080;9.476;2023-07-31T14:57:51;24.20;99.90
42479;DHT22;28110;47.080;9.476;2023-07-31T15:00:17;24.10;99.90
42479;DHT22;28110;47.080;9.476;2023-07-31T15:02:42;24.10;99.90
42479;DHT22;28110;47.080;9.476;2023-07-31T15:05:08;24.00;99.90
42479;DHT22;28110;47.080;9.476;2023-07-31T15:07:34;24.00;99.90
42479;DHT22;28110;47.080;9.476;2023-07-31T15:10:03;23.90;99.90
42479;DHT22;28110;47.080;9.476;2023-07-31T15:12:29;23.90;99.90
42479;DHT22;28110;47.080;9.476;2023-07-31T15:14:54;23.90;99.90
42479;DHT22;28110;47.080;9.476;2023-07-31T15:17:20;24.00;99.90
42479;DHT22;28110;47.080;9.476;2023-07-31T15:19:46;24.00;99.90
42479;DHT22;28110;47.080;9.476;2023-07-31T15:22:12;24.00;99.90
42479;DHT22;28110;47.080;9.476;2023-07-31T15:24:37;23.90;99.90
42479;DHT22;28110;47.080;9.476;2023-07-31T15:27:03;24.00;99.90